Time;durP1;ratioP1;P1;durP2;ratioP2;P2;SDS_P1;SDS_P2;PMS_P1;PMS_P2;Temp;Humidity;BMP_temperature;BMP_pressure;BME280_temperature;BME280_humidity;BME280_pressure;Samples;Min_cycle;Max_cycle;Signal;HPM_P1;HPM_P2
2023/08/30 00:01:11;;;;;;;9.13;5.15;;;;;;;17.54;nan;99366.22;5011615;28;20052;-68
2023/08/30 00:03:36;;;;;;;10.50;4.95;;;;;;;17.54;nan;99367.00;5029166;28;20036;-68
2023/08/30 00:06:06;;;;;;;14.73;5.10;;;;;;;17.61;nan;99375.38;5029059;28;20037;-68
2023/08/30 00:08:32;;;;;;;9.35;4.80;;;;;;;17.62;nan;99379.66;5029714;28;20021;-68
2023/08/30 00:10:58;;;;;;;7.22;4.90;;;;;;;17.59;nan;99374.88;5027441;28;20084;-67
2023/08/30 00:13:29;;;;;;;10.90;5.28;;;;;;;17.55;nan;99355.28;5027744;28;20557;-68
2023/08/30 00:15:54;;;;;;;14.32;5.57;;;;;;;17.64;nan;99358.81;5010237;28;20805;-68
2023/08/30 00:18:20;;;;;;;9.10;5.30;;;;;;;17.64;nan;99364.13;5028562;28;20034;-68
2023/08/30 00:20:45;;;;;;;10.57;5.13;;;;;;;17.68;nan;99369.66;5028369;28;20028;-68
2023/08/30 00:23:10;;;;;;;11.80;5.22;;;;;;;17.62;nan;99352.22;5010094;28;20026;-69
2023/08/30 00:25:36;;;;;;;11.70;5.00;;;;;;;17.65;nan;99355.09;5027485;28;20471;-68
2023/08/30 00:28:01;;;;;;;14.25;5.43;;;;;;;17.51;nan;99356.19;5011288;28;20520;-68
2023/08/30 00:30:27;;;;;;;10.25;5.13;;;;;;;17.42;nan;99340.09;5027452;28;20214;-68
2023/08/30 00:32:52;;;;;;;13.02;6.10;;;;;;;17.49;nan;99361.78;5026433;28;20018;-68
2023/08/30 00:35:17;;;;;;;8.38;5.10;;;;;;;17.47;nan;99361.28;5028778;28;20034;-68
2023/08/30 00:37:43;;;;;;;9.45;4.88;;;;;;;17.53;nan;99372.66;5026073;28;20032;-68
2023/08/30 00:40:08;;;;;;;13.23;5.43;;;;;;;17.40;nan;99347.59;5029364;28;20033;-67
2023/08/30 00:42:34;;;;;;;13.25;5.95;;;;;;;17.49;nan;99361.00;5008988;28;20357;-67
2023/08/30 00:44:59;;;;;;;7.97;5.18;;;;;;;17.52;nan;99361.19;5008713;28;20032;-68
2023/08/30 00:47:25;;;;;;;11.20;5.57;;;;;;;17.51;nan;99354.31;5027470;28;20028;-68
2023/08/30 00:49:50;;;;;;;9.57;5.13;;;;;;;17.40;nan;99351.03;5027617;28;20025;-67
2023/08/30 00:52:16;;;;;;;13.13;5.43;;;;;;;17.39;nan;99356.66;5027005;28;20040;-68
2023/08/30 00:54:41;;;;;;;11.98;5.10;;;;;;;17.42;nan;99372.81;5028612;28;20030;-69
2023/08/30 00:57:08;;;;;;;10.05;5.28;;;;;;;17.32;nan;99361.59;5026257;28;20056;-70
2023/08/30 00:59:33;;;;;;;12.93;5.38;;;;;;;17.41;nan;99381.13;5028681;28;20033;-71
2023/08/30 01:02:00;;;;;;;10.27;5.65;;;;;;;17.38;nan;99376.38;5027002;28;20020;-70
2023/08/30 01:04:27;;;;;;;10.50;4.82;;;;;;;17.37;nan;99374.81;5028929;28;20052;-70
2023/08/30 01:06:52;;;;;;;9.25;5.70;;;;;;;17.32;nan;99377.56;5027627;28;20017;-70
2023/08/30 01:09:18;;;;;;;16.67;5.47;;;;;;;17.29;nan;99383.47;5027894;28;20480;-71
2023/08/30 01:12:03;;;;;;;11.88;5.32;;;;;;;17.23;nan;99378.22;5025263;28;20062;-70
2023/08/30 01:14:40;;;;;;;11.75;5.68;;;;;;;17.16;nan;99377.81;5027097;28;20030;-70
2023/08/30 01:17:07;;;;;;;9.90;5.93;;;;;;;17.10;nan;99373.69;5009648;28;20061;-70
2023/08/30 01:19:33;;;;;;;8.15;5.75;;;;;;;17.22;nan;99400.59;5027363;28;20428;-71
2023/08/30 01:22:43;;;;;;;9.70;5.47;;;;;;;17.13;nan;99399.69;5019798;28;20186;-71
2023/08/30 01:25:14;;;;;;;9.02;6.05;;;;;;;17.21;nan;99415.00;5015971;28;20287;-71
2023/08/30 01:27:40;;;;;;;9.30;5.65;;;;;;;17.20;nan;99418.72;5014608;28;20051;-70
2023/08/30 01:30:08;;;;;;;10.32;5.68;;;;;;;17.12;nan;99394.66;5027492;28;20487;-69
2023/08/30 01:32:36;;;;;;;10.00;5.38;;;;;;;17.14;nan;99403.13;5008569;28;20036;-69
2023/08/30 01:35:03;;;;;;;10.80;5.53;;;;;;;17.17;nan;99403.34;5026843;28;20121;-68
2023/08/30 01:37:31;;;;;;;11.32;5.72;;;;;;;17.18;nan;99404.94;5027098;28;20135;-68
2023/08/30 01:39:57;;;;;;;16.58;5.70;;;;;;;17.21;nan;99404.34;5028519;28;20030;-68
2023/08/30 01:42:25;;;;;;;9.82;5.55;;;;;;;17.11;nan;99399.19;5025412;28;20352;-67
2023/08/30 01:44:54;;;;;;;9.95;6.30;;;;;;;17.06;nan;99407.25;5026873;28;20479;-68
2023/08/30 01:47:21;;;;;;;10.38;5.60;;;;;;;17.08;nan;99407.75;5025176;28;20369;-68
2023/08/30 01:49:47;;;;;;;14.43;5.90;;;;;;;17.08;nan;99399.00;5027701;28;20064;-68
2023/08/30 01:52:13;;;;;;;13.20;5.88;;;;;;;17.10;nan;99402.94;5026391;28;20049;-68
2023/08/30 01:54:40;;;;;;;11.68;6.22;;;;;;;17.05;nan;99397.72;5027681;28;20108;-69
2023/08/30 01:57:06;;;;;;;8.88;5.95;;;;;;;17.06;nan;99396.63;5026226;28;20116;-68
2023/08/30 01:59:32;;;;;;;11.13;5.63;;;;;;;17.05;nan;99395.06;5009151;28;20120;-68
2023/08/30 02:01:57;;;;;;;21.77;6.50;;;;;;;17.06;nan;99396.63;5025665;28;20366;-68
2023/08/30 02:04:22;;;;;;;8.75;6.07;;;;;;;17.00;nan;99393.28;5026972;28;20025;-68
2023/08/30 02:06:57;;;;;;;12.63;5.80;;;;;;;16.96;nan;99396.81;5027337;28;20415;-68
2023/08/30 02:09:46;;;;;;;10.32;5.90;;;;;;;16.92;nan;99393.94;5025879;28;20043;-69
2023/08/30 02:12:15;;;;;;;8.70;5.70;;;;;;;16.89;nan;99391.06;5013644;28;20215;-69
2023/08/30 02:14:47;;;;;;;13.80;6.18;;;;;;;16.82;nan;99380.03;5024325;28;20037;-70
2023/08/30 02:17:15;;;;;;;10.82;6.07;;;;;;;16.83;nan;99386.91;5025171;28;20117;-69
2023/08/30 02:19:43;;;;;;;9.98;5.90;;;;;;;16.77;nan;99386.19;5007920;28;20025;-70
2023/08/30 02:22:09;;;;;;;10.68;6.13;;;;;;;16.76;nan;99382.75;5025867;28;20021;-69
2023/08/30 02:24:34;;;;;;;10.60;5.40;;;;;;;16.75;nan;99381.13;5025128;28;20051;-70
2023/08/30 02:26:59;;;;;;;10.35;5.97;;;;;;;16.68;nan;99364.00;5026866;28;20025;-71
2023/08/30 02:29:25;;;;;;;10.30;5.15;;;;;;;16.75;nan;99380.34;5027074;28;20048;-70
2023/08/30 02:31:50;;;;;;;11.82;5.95;;;;;;;16.78;nan;99382.44;5027650;28;20034;-69
2023/08/30 02:34:15;;;;;;;10.20;5.95;;;;;;;16.83;nan;99386.91;5008157;28;20021;-70
2023/08/30 02:36:41;;;;;;;9.70;5.93;;;;;;;16.83;nan;99381.59;5026508;28;20030;-71
2023/08/30 02:39:07;;;;;;;13.73;6.28;;;;;;;16.80;nan;99378.44;5026208;28;20338;-70
2023/08/30 02:41:32;;;;;;;11.70;5.72;;;;;;;16.83;nan;99373.63;5018630;28;20025;-70
2023/08/30 02:43:57;;;;;;;7.15;5.40;;;;;;;16.84;nan;99372.53;5025668;28;20032;-70
2023/08/30 02:46:23;;;;;;;14.52;5.90;;;;;;;16.78;nan;99369.97;5027763;28;20101;-70
2023/08/30 02:48:48;;;;;;;13.77;6.07;;;;;;;16.78;nan;99364.66;5023115;28;20041;-69
2023/08/30 02:51:13;;;;;;;8.38;5.43;;;;;;;16.71;nan;99366.88;5024901;28;20091;-70
2023/08/30 02:53:39;;;;;;;9.67;5.37;;;;;;;16.64;nan;99353.16;5024285;28;20383;-70
2023/08/30 02:56:04;;;;;;;10.55;5.72;;;;;;;16.83;nan;99371.75;5026237;28;20266;-70
2023/08/30 02:58:29;;;;;;;11.18;6.07;;;;;;;16.70;nan;99365.28;5025653;28;20069;-70
2023/08/30 03:00:55;;;;;;;10.02;5.35;;;;;;;16.68;nan;99361.34;5024857;28;20025;-71
2023/08/30 03:03:20;;;;;;;9.63;5.07;;;;;;;16.75;nan;99365.19;5025644;28;20026;-70
2023/08/30 03:05:45;;;;;;;12.20;5.68;;;;;;;16.77;nan;99360.38;5026000;28;20017;-70
2023/08/30 03:08:11;;;;;;;15.07;5.68;;;;;;;16.78;nan;99347.88;5027055;28;20021;-70
2023/08/30 03:10:36;;;;;;;8.15;5.40;;;;;;;16.76;nan;99352.69;5024169;28;20029;-69
2023/08/30 03:13:02;;;;;;;9.48;5.13;;;;;;;16.78;nan;99353.19;5025596;28;20132;-70
2023/08/30 03:15:27;;;;;;;9.40;5.30;;;;;;;16.71;nan;99342.13;5006514;28;20592;-69
2023/08/30 03:17:52;;;;;;;9.57;5.50;;;;;;;16.48;nan;99331.34;5007847;28;20028;-70
2023/08/30 03:20:18;;;;;;;10.57;5.40;;;;;;;16.45;nan;99325.81;5024494;28;20025;-70
2023/08/30 03:22:44;;;;;;;11.93;5.15;;;;;;;16.41;nan;99340.78;5026044;28;20399;-70
2023/08/30 03:25:10;;;;;;;10.07;5.25;;;;;;;16.32;nan;99322.03;5008801;28;20033;-70
2023/08/30 03:27:35;;;;;;;12.80;6.72;;;;;;;16.49;nan;99348.84;5024120;28;20036;-69
2023/08/30 03:30:02;;;;;;;14.77;5.80;;;;;;;16.44;nan;99340.19;5026034;28;20113;-68
2023/08/30 03:32:28;;;;;;;11.82;5.60;;;;;;;16.45;nan;99339.91;5025842;28;20032;-68
2023/08/30 03:34:53;;;;;;;9.38;6.03;;;;;;;16.55;nan;99363.66;5025539;28;20037;-68
2023/08/30 03:37:18;;;;;;;10.82;5.47;;;;;;;16.59;nan;99361.19;5024456;28;20021;-68
2023/08/30 03:39:44;;;;;;;14.07;5.68;;;;;;;16.46;nan;99348.66;5026144;28;20035;-68
2023/08/30 03:42:09;;;;;;;12.93;5.50;;;;;;;16.48;nan;99344.63;5023842;28;20065;-71
2023/08/30 03:44:35;;;;;;;9.13;5.43;;;;;;;16.40;nan;99336.53;5026240;28;20414;-68
2023/08/30 03:47:00;;;;;;;13.57;5.20;;;;;;;16.34;nan;99349.09;5026379;28;20040;-70
2023/08/30 03:49:25;;;;;;;15.48;5.70;;;;;;;16.34;nan;99363.16;5026186;28;20157;-71
2023/08/30 03:51:51;;;;;;;10.48;6.00;;;;;;;16.33;nan;99358.16;5015489;28;20103;-71
2023/08/30 03:54:17;;;;;;;15.55;5.57;;;;;;;16.33;nan;99372.22;5025604;28;20112;-71
2023/08/30 03:56:43;;;;;;;8.23;5.60;;;;;;;16.35;nan;99378.06;5026533;28;20532;-70
2023/08/30 03:59:09;;;;;;;9.93;5.72;;;;;;;16.42;nan;99385.63;5028387;28;20490;-71
2023/08/30 04:01:34;;;;;;;15.13;5.78;;;;;;;16.33;nan;99384.72;5026887;28;20040;-70
2023/08/30 04:03:59;;;;;;;8.88;5.65;;;;;;;16.22;nan;99378.75;5029489;28;20104;-69
2023/08/30 04:06:25;;;;;;;8.30;5.60;;;;;;;16.20;nan;99374.81;5029979;28;20490;-70
2023/08/30 04:08:50;;;;;;;7.57;5.30;;;;;;;16.11;nan;99366.69;5028778;28;20418;-69
2023/08/30 04:11:15;;;;;;;8.45;5.18;;;;;;;16.11;nan;99362.19;5029420;28;20036;-69
2023/08/30 04:13:41;;;;;;;10.98;5.60;;;;;;;16.12;nan;99361.09;5015021;28;20045;-69
2023/08/30 04:16:06;;;;;;;13.90;6.43;;;;;;;16.11;nan;99367.50;5020397;28;20029;-68
2023/08/30 04:18:31;;;;;;;7.35;5.47;;;;;;;16.09;nan;99361.69;5025719;28;20032;-69
2023/08/30 04:20:58;;;;;;;13.02;6.20;;;;;;;15.96;nan;99359.72;5010905;28;20124;-68
2023/08/30 04:23:23;;;;;;;11.15;6.10;;;;;;;16.09;nan;99377.59;5022758;28;20801;-68
2023/08/30 04:25:49;;;;;;;13.80;6.50;;;;;;;16.17;nan;99395.56;5008382;28;20056;-67
2023/08/30 04:28:14;;;;;;;13.43;6.03;;;;;;;16.19;nan;99389.97;5029761;28;20035;-68
2023/08/30 04:30:40;;;;;;;12.40;5.63;;;;;;;16.27;nan;99391.19;5010535;28;20032;-67
2023/08/30 04:33:05;;;;;;;12.35;6.10;;;;;;;16.26;nan;99385.09;5028551;28;20124;-68
2023/08/30 04:35:31;;;;;;;12.07;5.72;;;;;;;16.33;nan;99390.03;5027301;28;20029;-71
2023/08/30 04:38:01;;;;;;;10.05;5.85;;;;;;;16.28;nan;99374.97;5027885;28;20038;-69
2023/08/30 04:40:27;;;;;;;9.07;6.28;;;;;;;16.37;nan;99383.84;5027581;28;20017;-69
2023/08/30 04:42:52;;;;;;;11.93;5.93;;;;;;;16.38;nan;99382.78;5029070;28;20108;-69
2023/08/30 04:45:18;;;;;;;13.88;5.50;;;;;;;16.36;nan;99378.84;5028548;28;20530;-69
2023/08/30 04:47:45;;;;;;;10.73;5.95;;;;;;;16.17;nan;99347.75;5029419;28;20049;-68
2023/08/30 04:50:11;;;;;;;9.65;5.93;;;;;;;16.28;nan;99372.31;5026401;28;20030;-69
2023/08/30 04:52:36;;;;;;;12.80;6.88;;;;;;;16.31;nan;99374.38;5028060;28;20101;-68
2023/08/30 04:55:02;;;;;;;9.13;5.95;;;;;;;16.31;nan;99377.03;5025984;28;20120;-68
2023/08/30 04:57:28;;;;;;;16.25;7.13;;;;;;;16.32;nan;99375.94;5010484;28;20057;-68
2023/08/30 04:59:53;;;;;;;13.82;6.50;;;;;;;16.42;nan;99382.19;5009650;28;20132;-68
2023/08/30 05:02:18;;;;;;;10.00;6.78;;;;;;;16.44;nan;99377.38;5028003;28;20021;-68
2023/08/30 05:04:44;;;;;;;11.85;6.30;;;;;;;16.55;nan;99379.59;5004401;28;20036;-68
2023/08/30 05:07:09;;;;;;;16.25;6.45;;;;;;;16.63;nan;99370.19;5029211;28;20041;-67
2023/08/30 05:09:35;;;;;;;10.75;6.70;;;;;;;16.64;nan;99363.78;5028850;28;20073;-69
2023/08/30 05:12:01;;;;;;;9.75;6.55;;;;;;;16.74;nan;99374.25;5029947;28;20064;-68
2023/08/30 05:14:26;;;;;;;10.20;6.53;;;;;;;16.77;nan;99367.56;5027500;28;20026;-67
2023/08/30 05:16:52;;;;;;;13.95;6.93;;;;;;;16.86;nan;99383.69;5027163;28;20035;-68
2023/08/30 05:19:18;;;;;;;12.32;6.93;;;;;;;16.85;nan;99369.56;5026819;28;20519;-70
2023/08/30 05:21:44;;;;;;;13.00;7.68;;;;;;;16.86;nan;99365.06;5026616;28;20071;-70
2023/08/30 05:24:10;;;;;;;11.93;7.03;;;;;;;16.97;nan;99375.22;5026897;28;20017;-70
2023/08/30 05:26:35;;;;;;;12.48;7.25;;;;;;;17.05;nan;99373.78;5010474;28;20033;-70
2023/08/30 05:29:01;;;;;;;11.65;7.03;;;;;;;16.90;nan;99347.44;5008384;28;20025;-71
2023/08/30 05:31:26;;;;;;;14.25;7.47;;;;;;;16.98;nan;99360.06;5027383;28;20036;-70
2023/08/30 05:33:52;;;;;;;12.10;6.97;;;;;;;17.05;nan;99367.66;5027647;28;20167;-71
2023/08/30 05:36:18;;;;;;;14.43;7.00;;;;;;;17.05;nan;99372.97;5027697;28;20022;-70
2023/08/30 05:38:43;;;;;;;13.77;6.72;;;;;;;17.07;nan;99390.25;5025771;28;20030;-70
2023/08/30 05:41:08;;;;;;;11.38;6.65;;;;;;;17.07;nan;99392.91;5027465;28;20035;-71
2023/08/30 05:43:34;;;;;;;12.18;6.15;;;;;;;17.12;nan;99400.78;5027620;28;20364;-72
2023/08/30 05:46:02;;;;;;;13.18;7.10;;;;;;;17.16;nan;99409.75;5028514;28;20807;-72
2023/08/30 05:48:28;;;;;;;14.13;7.07;;;;;;;17.09;nan;99419.97;5008526;28;20110;-71
2023/08/30 05:50:53;;;;;;;17.30;6.93;;;;;;;17.01;nan;99418.00;5028672;28;20483;-72
2023/08/30 05:53:18;;;;;;;15.40;6.70;;;;;;;17.09;nan;99432.50;5009494;28;20028;-71
2023/08/30 05:55:44;;;;;;;13.15;6.82;;;;;;;17.06;nan;99433.09;5027275;28;21117;-70
2023/08/30 05:58:09;;;;;;;13.25;6.95;;;;;;;17.01;nan;99428.63;5025131;28;20495;-72
2023/08/30 06:00:35;;;;;;;11.90;7.38;;;;;;;17.05;nan;99431.47;5027368;28;20049;-72
2023/08/30 06:03:00;;;;;;;14.57;6.85;;;;;;;17.09;nan;99443.13;5024420;28;20083;-72
2023/08/30 06:05:26;;;;;;;10.98;7.00;;;;;;;17.07;nan;99435.47;5010013;28;20028;-72
2023/08/30 06:07:52;;;;;;;15.27;7.95;;;;;;;17.10;nan;99432.22;5027594;28;20426;-71
2023/08/30 06:10:18;;;;;;;11.95;6.95;;;;;;;17.17;nan;99434.50;5027664;28;20112;-72
2023/08/30 06:12:43;;;;;;;11.95;6.95;;;;;;;17.25;nan;99430.38;5026781;28;20181;-69
2023/08/30 06:15:09;;;;;;;12.75;6.47;;;;;;;17.29;nan;99434.03;5007660;28;20083;-72
2023/08/30 06:17:34;;;;;;;10.68;6.63;;;;;;;17.36;nan;99431.78;5026288;28;20445;-71
2023/08/30 06:19:59;;;;;;;13.88;6.78;;;;;;;17.39;nan;99437.28;5026554;28;20022;-71
2023/08/30 06:22:25;;;;;;;9.85;6.88;;;;;;;17.38;nan;99418.94;5009136;28;20021;-71
2023/08/30 06:24:50;;;;;;;16.48;7.30;;;;;;;17.34;nan;99437.38;5027874;28;20163;-72
2023/08/30 06:27:16;;;;;;;14.05;7.82;;;;;;;17.36;nan;99447.75;5026625;28;20105;-72
2023/08/30 06:29:41;;;;;;;13.45;8.55;;;;;;;17.38;nan;99434.91;5027290;28;20026;-73
2023/08/30 06:32:07;;;;;;;12.50;7.80;;;;;;;17.37;nan;99422.69;5025436;28;20075;-72
2023/08/30 06:34:32;;;;;;;13.13;8.13;;;;;;;17.53;nan;99445.31;5008993;28;20041;-73
2023/08/30 06:36:57;;;;;;;13.40;7.95;;;;;;;17.54;nan;99435.44;5025498;28;20032;-72
2023/08/30 06:39:23;;;;;;;10.60;7.28;;;;;;;17.58;nan;99439.88;5026064;28;20108;-71
2023/08/30 06:41:48;;;;;;;12.35;7.95;;;;;;;17.59;nan;99430.00;5026847;28;20053;-70
2023/08/30 06:44:13;;;;;;;17.92;7.47;;;;;;;17.72;nan;99437.22;5027017;28;20258;-71
2023/08/30 06:46:39;;;;;;;10.70;7.88;;;;;;;17.76;nan;99443.53;5027027;28;20068;-71
2023/08/30 06:49:05;;;;;;;13.07;7.75;;;;;;;17.80;nan;99444.53;5026655;28;20056;-72
2023/08/30 06:51:31;;;;;;;13.60;7.70;;;;;;;17.54;nan;99401.63;5027272;28;20080;-73
2023/08/30 06:54:00;;;;;;;12.77;7.63;;;;;;;17.84;nan;99429.56;5025640;28;20030;-73
2023/08/30 06:56:26;;;;;;;14.90;8.30;;;;;;;17.82;nan;99402.44;5025162;28;20584;-72
2023/08/30 06:58:51;;;;;;;13.52;7.78;;;;;;;17.96;nan;99412.28;5008596;28;20117;-74
2023/08/30 07:01:16;;;;;;;13.98;8.77;;;;;;;17.88;nan;99400.44;5027018;28;20121;-74
2023/08/30 07:03:43;;;;;;;16.42;8.95;;;;;;;17.94;nan;99409.13;5026092;28;20040;-74
2023/08/30 07:06:09;;;;;;;17.75;9.15;;;;;;;18.01;nan;99420.19;5025553;28;20017;-74
2023/08/30 07:08:34;;;;;;;14.02;8.70;;;;;;;18.07;nan;99419.75;5025724;28;20033;-73
2023/08/30 07:11:00;;;;;;;11.77;8.65;;;;;;;18.13;nan;99415.13;5008849;28;20471;-73
2023/08/30 07:13:25;;;;;;;11.90;8.55;;;;;;;18.22;nan;99404.53;5016775;28;20051;-73
2023/08/30 07:15:51;;;;;;;11.43;8.10;;;;;;;18.33;nan;99413.09;5006699;28;20113;-73
2023/08/30 07:18:16;;;;;;;11.60;8.05;;;;;;;18.38;nan;99420.97;5024991;28;20489;-72
2023/08/30 07:20:42;;;;;;;16.63;8.90;;;;;;;18.46;nan;99426.41;5006867;28;20037;-72
2023/08/30 07:23:07;;;;;;;14.52;8.27;;;;;;;18.55;nan;99434.44;5026473;28;20530;-72
2023/08/30 07:25:33;;;;;;;15.68;8.88;;;;;;;18.54;nan;99424.88;4997279;28;20026;-72
2023/08/30 07:27:59;;;;;;;14.70;8.80;;;;;;;18.75;nan;99432.41;5027680;28;20052;-71
2023/08/30 07:30:25;;;;;;;17.90;8.43;;;;;;;18.80;nan;99438.44;5013143;28;20442;-71
2023/08/30 07:32:50;;;;;;;12.68;8.32;;;;;;;18.87;nan;99436.16;5028811;28;20029;-71
2023/08/30 07:35:15;;;;;;;13.18;8.80;;;;;;;19.07;nan;99436.75;5012060;28;20022;-72
2023/08/30 07:37:41;;;;;;;14.38;8.68;;;;;;;19.16;nan;99442.91;5030235;28;20033;-71
2023/08/30 07:40:07;;;;;;;14.18;8.00;;;;;;;19.29;nan;99455.38;5029884;28;20108;-71
2023/08/30 07:42:32;;;;;;;13.27;7.85;;;;;;;19.26;nan;99457.88;5011283;28;20113;-71
2023/08/30 07:44:58;;;;;;;12.20;7.57;;;;;;;19.36;nan;99473.66;5030382;28;20120;-71
2023/08/30 07:47:23;;;;;;;11.57;7.90;;;;;;;19.41;nan;99480.75;5010976;28;20029;-71
2023/08/30 07:49:48;;;;;;;14.18;8.55;;;;;;;19.44;nan;99493.47;5008208;28;20079;-72
2023/08/30 07:52:14;;;;;;;11.18;7.80;;;;;;;19.53;nan;99449.69;5029752;28;20038;-72
2023/08/30 07:54:40;;;;;;;11.98;7.60;;;;;;;19.55;nan;99470.75;5012312;28;20030;-71
2023/08/30 07:57:06;;;;;;;12.70;8.05;;;;;;;19.61;nan;99450.03;5029842;28;20032;-71
2023/08/30 07:59:38;;;;;;;20.30;9.70;;;;;;;19.65;nan;99457.13;5011492;28;20081;-71
2023/08/30 08:02:07;;;;;;;14.05;9.15;;;;;;;19.69;nan;99452.00;5011920;28;20021;-72
2023/08/30 08:04:34;;;;;;;15.65;8.35;;;;;;;19.68;nan;99455.75;5012081;28;20030;-71
2023/08/30 08:06:59;;;;;;;12.55;8.20;;;;;;;19.60;nan;99470.63;5003277;28;20032;-71
2023/08/30 08:09:25;;;;;;;16.20;8.40;;;;;;;19.72;nan;99457.50;5030071;28;20029;-70
2023/08/30 08:11:50;;;;;;;13.48;8.80;;;;;;;19.80;nan;99471.19;5029450;28;20056;-70
2023/08/30 08:14:16;;;;;;;15.40;8.38;;;;;;;19.79;nan;99537.19;5012224;28;20101;-72
2023/08/30 08:16:41;;;;;;;17.33;7.78;;;;;;;19.84;nan;99531.72;5030460;28;20032;-72
2023/08/30 08:19:07;;;;;;;13.25;7.65;;;;;;;19.85;nan;99525.28;5027652;28;21809;-73
2023/08/30 08:21:35;;;;;;;14.75;7.82;;;;;;;19.76;nan;99503.88;5009882;28;20060;-74
2023/08/30 08:24:01;;;;;;;12.38;6.97;;;;;;;19.87;nan;99508.94;5027917;28;20064;-72
2023/08/30 08:26:27;;;;;;;10.88;6.82;;;;;;;19.93;nan;99515.72;5029429;28;20065;-71
2023/08/30 08:28:54;;;;;;;12.73;7.60;;;;;;;19.90;nan;99517.13;5029201;28;20120;-71
2023/08/30 08:31:19;;;;;;;15.05;7.35;;;;;;;19.85;nan;99511.94;5011919;28;20032;-72
2023/08/30 08:33:45;;;;;;;15.98;7.93;;;;;;;19.79;nan;99505.13;5027574;28;20468;-72
2023/08/30 08:36:10;;;;;;;16.17;7.68;;;;;;;19.80;nan;99514.75;5026801;28;20120;-73
2023/08/30 08:38:36;;;;;;;13.70;7.68;;;;;;;19.78;nan;99511.59;5029257;28;20379;-72
2023/08/30 08:41:05;;;;;;;12.15;7.28;;;;;;;19.80;nan;99511.25;5001806;28;20032;-72
2023/08/30 08:43:32;;;;;;;10.32;6.82;;;;;;;19.85;nan;99533.31;5026052;28;20506;-72
2023/08/30 08:46:00;;;;;;;12.38;7.55;;;;;;;19.94;nan;99549.38;5029750;28;20030;-72
2023/08/30 08:48:28;;;;;;;14.80;7.68;;;;;;;19.89;nan;99550.28;5010285;28;20117;-72
2023/08/30 08:50:55;;;;;;;14.93;8.97;;;;;;;19.84;nan;99550.41;5029711;28;20022;-73
2023/08/30 08:53:21;;;;;;;12.73;8.82;;;;;;;19.80;nan;99568.19;5009068;28;20401;-73
2023/08/30 08:55:48;;;;;;;17.58;9.93;;;;;;;19.60;nan;99564.09;5029145;28;20037;-72
2023/08/30 08:58:14;;;;;;;13.50;9.02;;;;;;;19.63;nan;99570.69;5026812;28;20026;-72
2023/08/30 09:00:42;;;;;;;18.70;9.07;;;;;;;19.47;nan;99555.06;5010499;28;20025;-73
2023/08/30 09:03:08;;;;;;;17.83;9.13;;;;;;;19.43;nan;99531.94;5027228;28;20030;-72
2023/08/30 09:05:37;;;;;;;16.30;9.38;;;;;;;19.49;nan;99534.19;5028445;28;20033;-73
2023/08/30 09:08:04;;;;;;;16.50;8.73;;;;;;;19.45;nan;99511.88;5009160;28;20029;-73
2023/08/30 09:10:29;;;;;;;14.57;10.13;;;;;;;19.47;nan;99512.34;5027849;28;20067;-72
2023/08/30 09:12:55;;;;;;;13.57;9.40;;;;;;;19.57;nan;99521.19;5026568;28;20080;-72
2023/08/30 09:15:21;;;;;;;15.30;8.88;;;;;;;19.60;nan;99532.03;5029302;28;20025;-73
2023/08/30 09:17:46;;;;;;;14.77;9.15;;;;;;;19.51;nan;99524.00;5027456;28;20584;-73
2023/08/30 09:20:13;;;;;;;12.80;8.15;;;;;;;19.65;nan;99557.84;5027205;28;20108;-71
2023/08/30 09:22:42;;;;;;;13.18;8.88;;;;;;;19.62;nan;99561.91;5027333;28;20075;-72
2023/08/30 09:25:10;;;;;;;13.38;9.00;;;;;;;19.57;nan;99545.22;5028992;28;20044;-72
2023/08/30 09:27:38;;;;;;;11.35;8.40;;;;;;;19.61;nan;99554.19;5026958;28;20032;-73
2023/08/30 09:30:08;;;;;;;14.93;8.77;;;;;;;19.65;nan;99553.28;5028485;28;20029;-72
2023/08/30 09:32:38;;;;;;;16.05;8.93;;;;;;;19.46;nan;99526.00;5026351;28;20037;-72
2023/08/30 09:35:04;;;;;;;10.98;7.65;;;;;;;19.53;nan;99555.72;5027418;28;20040;-72
2023/08/30 09:37:30;;;;;;;11.07;7.72;;;;;;;19.51;nan;99584.59;5026303;28;20918;-70
2023/08/30 09:39:55;;;;;;;12.85;7.68;;;;;;;19.35;nan;99594.88;5028488;28;20029;-70
2023/08/30 09:42:22;;;;;;;18.98;8.65;;;;;;;19.40;nan;99610.00;5027077;28;20028;-71
2023/08/30 09:44:48;;;;;;;12.32;8.07;;;;;;;19.23;nan;99600.75;5028656;28;20044;-70
2023/08/30 09:47:15;;;;;;;15.85;8.80;;;;;;;19.16;nan;99597.72;5027219;28;20047;-71
2023/08/30 09:49:47;;;;;;;13.15;8.48;;;;;;;19.22;nan;99612.50;5009583;28;20048;-72
2023/08/30 09:52:15;;;;;;;15.13;8.32;;;;;;;19.26;nan;99610.03;5021227;28;20041;-71
2023/08/30 09:54:43;;;;;;;11.95;7.90;;;;;;;19.30;nan;99613.69;5024562;28;20045;-71
2023/08/30 09:57:11;;;;;;;15.07;8.30;;;;;;;19.30;nan;99622.47;5020070;28;20464;-70
2023/08/30 09:59:38;;;;;;;14.20;9.32;;;;;;;19.24;nan;99614.88;5020045;28;20067;-72
2023/08/30 10:02:05;;;;;;;15.13;8.80;;;;;;;19.31;nan;99633.94;5024410;28;20086;-72
2023/08/30 10:04:33;;;;;;;13.80;8.50;;;;;;;19.25;nan;99638.63;5024893;28;20017;-72
2023/08/30 10:06:58;;;;;;;13.13;8.25;;;;;;;19.32;nan;99656.88;5025409;28;20017;-72
2023/08/30 10:09:24;;;;;;;15.27;8.07;;;;;;;19.35;nan;99664.28;5024193;28;20010;-73
2023/08/30 10:11:50;;;;;;;16.05;8.45;;;;;;;19.31;nan;99656.06;5025011;28;20049;-72
2023/08/30 10:14:16;;;;;;;16.10;8.73;;;;;;;19.30;nan;99637.72;5026268;28;20033;-72
2023/08/30 10:16:46;;;;;;;12.15;6.90;;;;;;;19.31;nan;99626.72;5025466;28;20021;-73
2023/08/30 10:19:23;;;;;;;9.52;5.18;;;;;;;19.23;nan;99608.75;5026028;28;20072;-73
2023/08/30 10:22:01;;;;;;;10.32;4.75;;;;;;;19.21;nan;99626.16;5027430;28;20295;-73
2023/08/30 10:24:28;;;;;;;8.43;4.65;;;;;;;19.16;nan;99624.41;5026565;28;20021;-74
2023/08/30 10:26:56;;;;;;;8.70;5.70;;;;;;;19.12;nan;99634.88;5027766;28;20025;-72
2023/08/30 10:29:23;;;;;;;11.32;6.05;;;;;;;19.13;nan;99649.03;5025764;28;20025;-74
2023/08/30 10:31:49;;;;;;;11.65;7.28;;;;;;;19.16;nan;99656.44;5027336;28;20030;-73
2023/08/30 10:34:16;;;;;;;13.38;7.55;;;;;;;19.13;nan;99652.47;5026382;28;20494;-73
2023/08/30 10:36:56;;;;;;;13.75;7.53;;;;;;;19.22;nan;99665.88;5028010;28;20479;-73
2023/08/30 10:39:32;;;;;;;10.68;7.15;;;;;;;19.21;nan;99658.97;5026240;28;20022;-73
2023/08/30 10:41:58;;;;;;;11.00;7.15;;;;;;;19.21;nan;99658.19;5008524;28;20053;-73
2023/08/30 10:44:23;;;;;;;9.38;7.03;;;;;;;19.20;nan;99645.94;5025320;28;20048;-74
2023/08/30 10:46:54;;;;;;;13.77;6.85;;;;;;;19.23;nan;99648.78;5024689;28;20021;-73
2023/08/30 10:49:19;;;;;;;9.25;6.32;;;;;;;19.24;nan;99634.34;5025412;28;20013;-73
2023/08/30 10:51:47;;;;;;;8.77;6.93;;;;;;;19.20;nan;99632.59;5021299;28;20428;-73
2023/08/30 10:54:15;;;;;;;8.35;6.85;;;;;;;19.20;nan;99628.06;5026951;28;20773;-73
2023/08/30 10:57:00;;;;;;;9.43;7.53;;;;;;;19.10;nan;99609.56;5023990;28;20026;-72
2023/08/30 10:59:26;;;;;;;11.82;7.70;;;;;;;18.97;nan;99597.06;5026829;28;20030;-72
2023/08/30 11:01:52;;;;;;;15.82;9.25;;;;;;;18.95;nan;99591.25;5006400;28;20108;-72
2023/08/30 11:04:18;;;;;;;13.13;9.27;;;;;;;18.87;nan;99590.88;5029865;28;20048;-72
2023/08/30 11:06:48;;;;;;;16.58;9.90;;;;;;;18.58;nan;99551.19;5029405;28;20032;-73
2023/08/30 11:09:18;;;;;;;17.20;10.32;;;;;;;18.72;nan;99567.16;5031427;28;20099;-72
2023/08/30 11:11:45;;;;;;;14.43;9.23;;;;;;;18.68;nan;99558.19;5029293;28;20049;-72
2023/08/30 11:14:11;;;;;;;14.90;10.43;;;;;;;18.55;nan;99546.44;5012213;28;20049;-72
2023/08/30 11:16:37;;;;;;;12.60;9.48;;;;;;;18.66;nan;99571.03;5014599;28;20452;-71
2023/08/30 11:19:08;;;;;;;14.05;9.75;;;;;;;18.58;nan;99555.72;5027611;28;20025;-71
2023/08/30 11:21:36;;;;;;;11.13;8.20;;;;;;;18.39;nan;99529.16;5027008;28;20029;-72
2023/08/30 11:24:03;;;;;;;13.13;8.00;;;;;;;18.60;nan;99554.31;5019313;28;20033;-70
2023/08/30 11:26:28;;;;;;;13.45;8.20;;;;;;;18.68;nan;99572.31;5026573;28;20061;-69
2023/08/30 11:28:53;;;;;;;11.15;7.68;;;;;;;18.73;nan;99584.75;5019466;28;20836;-69
2023/08/30 11:31:26;;;;;;;10.52;8.27;;;;;;;18.82;nan;99593.66;5028313;28;20032;-70
2023/08/30 11:33:59;;;;;;;12.30;8.30;;;;;;;18.80;nan;99585.16;5010459;28;20494;-70
2023/08/30 11:36:30;;;;;;;10.02;7.38;;;;;;;18.74;nan;99574.84;5029503;28;20035;-71
2023/08/30 11:38:56;;;;;;;9.15;7.43;;;;;;;18.83;nan;99578.44;5022401;28;20472;-71
2023/08/30 11:41:22;;;;;;;11.50;6.88;;;;;;;18.85;nan;99582.38;5028572;28;20550;-70